Time;durP1;ratioP1;P1;durP2;ratioP2;P2;SDS_P1;SDS_P2;PMS_P1;PMS_P2;Temp;Humidity;BMP_temperature;BMP_pressure;BME280_temperature;BME280_humidity;BME280_pressure;Samples;Min_cycle;Max_cycle;Signal;HPM_P1;HPM_P2
2022/09/11 00:01:42;;;;;;;2.95;1.88;;;16.00;99.90;;;18.76;58.70;97671.44;5067257;28;20265;-60
2022/09/11 00:04:10;;;;;;;5.50;2.45;;;16.00;99.90;;;18.68;58.75;97661.72;5066140;28;20261;-60
2022/09/11 00:06:39;;;;;;;2.63;1.52;;;15.90;99.90;;;18.74;58.70;97678.09;5065108;28;20047;-60
2022/09/11 00:09:07;;;;;;;4.88;2.28;;;16.00;99.90;;;18.77;58.49;97674.97;5066217;28;20040;-60
2022/09/11 00:11:41;;;;;;;4.80;2.10;;;16.00;99.90;;;18.73;58.74;97671.03;5066751;28;20053;-59
2022/09/11 00:14:12;;;;;;;3.15;2.10;;;15.90;99.90;;;18.72;58.75;97664.81;5067094;28;20048;-59
2022/09/11 00:16:44;;;;;;;3.45;2.28;;;15.90;99.90;;;18.56;59.38;97663.41;5067170;28;20048;-58
2022/09/11 00:19:18;;;;;;;3.95;2.40;;;15.80;99.90;;;18.57;58.95;97656.16;5065453;28;20056;-60
2022/09/11 00:21:49;;;;;;;3.88;2.30;;;15.80;99.90;;;18.68;58.53;97656.31;5066240;28;20053;-57
2022/09/11 00:24:17;;;;;;;3.47;1.90;;;15.90;99.90;;;18.71;58.59;97657.78;5048708;28;20040;-60
2022/09/11 00:26:46;;;;;;;3.17;1.95;;;15.90;99.90;;;18.45;59.41;97653.28;5066002;28;20049;-59
2022/09/11 00:29:14;;;;;;;3.63;2.85;;;15.80;99.90;;;18.52;59.01;97656.81;5082412;28;20543;-60
2022/09/11 00:31:42;;;;;;;2.38;2.13;;;15.80;99.90;;;18.58;58.94;97666.72;5064798;28;20049;-60
2022/09/11 00:34:10;;;;;;;3.08;2.10;;;15.80;99.90;;;18.56;58.95;97655.34;5064047;28;20268;-60
2022/09/11 00:36:40;;;;;;;4.40;1.98;;;15.80;99.90;;;18.61;58.74;97663.63;5048017;28;20358;-60
2022/09/11 00:39:11;;;;;;;5.57;2.75;;;15.90;99.90;;;18.63;58.90;97658.00;5048358;28;20578;-60
2022/09/11 00:41:43;;;;;;;7.68;2.45;;;15.90;99.90;;;18.66;58.41;97658.41;5065830;28;20055;-60
2022/09/11 00:44:11;;;;;;;3.47;2.15;;;15.90;99.90;;;18.66;58.71;97661.09;5064084;28;20358;-60
2022/09/11 00:46:43;;;;;;;4.22;2.10;;;15.90;99.90;;;18.65;58.64;97654.06;5065871;28;20064;-60
2022/09/11 00:49:30;;;;;;;2.90;2.15;;;15.90;99.90;;;18.70;58.55;97661.50;5065154;28;20056;-59
2022/09/11 00:52:09;;;;;;;3.20;2.28;;;15.90;99.90;;;18.74;58.36;97664.59;5048346;28;20243;-60
2022/09/11 00:55:00;;;;;;;4.60;2.10;;;15.90;99.90;;;18.69;58.68;97665.25;5049747;28;20052;-61
2022/09/11 00:57:33;;;;;;;4.40;2.33;;;16.00;99.90;;;18.68;58.63;97660.91;5065600;28;20045;-60
2022/09/11 01:00:04;;;;;;;5.00;2.25;;;15.90;99.90;;;18.67;58.83;97662.78;5063756;28;20050;-60
2022/09/11 01:02:37;;;;;;;3.70;2.30;;;15.90;99.90;;;18.73;58.59;97665.63;5065293;28;20049;-60
2022/09/11 01:05:06;;;;;;;3.75;2.25;;;16.00;99.90;;;18.79;58.36;97657.53;5065019;28;20048;-61
2022/09/11 01:07:36;;;;;;;3.28;2.60;;;16.00;99.90;;;18.71;58.72;97663.19;5065472;28;20071;-60
2022/09/11 01:10:07;;;;;;;5.10;2.33;;;16.00;99.90;;;18.61;59.10;97662.78;5064837;28;20056;-60
2022/09/11 01:13:31;;;;;;;5.28;3.00;;;15.90;99.90;;;18.49;59.19;97662.59;5047294;28;20064;-60
2022/09/11 01:16:14;;;;;;;5.53;2.58;;;15.90;99.90;;;18.50;59.37;97661.56;5065100;28;20076;-60
2022/09/11 01:19:08;;;;;;;4.00;2.60;;;15.80;99.90;;;18.46;59.64;97657.66;5065257;28;20350;-60
2022/09/11 01:22:13;;;;;;;7.00;2.95;;;15.80;99.90;;;18.37;60.02;97659.72;5066636;28;20044;-60
2022/09/11 01:25:00;;;;;;;6.05;2.88;;;15.80;99.90;;;18.39;59.98;97659.53;5080771;28;20358;-60
2022/09/11 01:27:38;;;;;;;4.40;2.75;;;15.80;99.90;;;18.27;60.27;97668.25;5063366;28;20059;-60
2022/09/11 01:30:08;;;;;;;5.15;3.08;;;15.70;99.90;;;18.34;60.13;97662.88;5068580;28;20071;-60
2022/09/11 01:32:50;;;;;;;4.43;2.88;;;15.70;99.90;;;18.39;60.00;97673.00;5052067;28;20717;-58
2022/09/11 01:35:52;;;;;;;4.88;3.78;;;15.80;99.90;;;18.45;59.87;97664.06;5067667;28;20059;-60
2022/09/11 01:38:33;;;;;;;5.60;3.10;;;15.80;99.90;;;18.33;60.31;97668.47;5070253;28;20397;-59
2022/09/11 01:41:17;;;;;;;4.95;2.75;;;15.70;99.90;;;18.35;59.90;97653.72;5070495;28;20231;-61
2022/09/11 01:43:55;;;;;;;3.92;2.92;;;15.70;99.90;;;18.30;60.26;97661.63;5052183;28;20060;-60
2022/09/11 01:46:27;;;;;;;4.20;3.13;;;15.70;99.90;;;18.36;60.28;97657.25;5067673;28;20055;-60
2022/09/11 01:49:07;;;;;;;5.55;4.35;;;15.80;99.90;;;18.30;60.31;97656.25;5069034;28;20258;-60
2022/09/11 01:51:38;;;;;;;5.38;3.75;;;15.80;99.90;;;18.40;60.04;97656.63;5051458;28;20052;-60
2022/09/11 01:54:31;;;;;;;4.90;3.78;;;15.80;99.90;;;18.33;60.22;97652.28;5050993;28;20060;-60
2022/09/11 01:57:18;;;;;;;6.65;3.78;;;15.80;99.90;;;18.39;60.17;97654.13;5068977;28;20053;-60
2022/09/11 01:59:54;;;;;;;4.93;3.33;;;15.70;99.90;;;18.38;60.24;97656.00;5068807;28;20074;-60
2022/09/11 02:02:33;;;;;;;5.35;3.63;;;15.70;99.90;;;18.22;60.68;97657.28;5068187;28;20058;-60
2022/09/11 02:05:47;;;;;;;7.65;3.53;;;15.70;99.90;;;18.00;61.39;97651.28;5067484;28;20229;-59
2022/09/11 02:08:40;;;;;;;4.05;3.40;;;15.60;99.90;;;18.01;61.23;97654.81;5056191;28;20048;-60
2022/09/11 02:11:11;;;;;;;6.20;3.58;;;15.60;99.90;;;18.12;60.94;97653.34;5053615;28;20052;-60
2022/09/11 02:13:58;;;;;;;5.07;3.70;;;15.60;99.90;;;18.05;61.19;97658.75;5067382;28;20366;-59
2022/09/11 02:16:38;;;;;;;;;;;15.50;99.90;;;18.00;61.51;97661.25;5051837;28;20048;-60
2022/09/11 02:19:14;;;;;;;9.55;3.60;;;15.50;99.90;;;18.18;60.72;97664.09;5068318;28;19932;-60
2022/09/11 02:21:46;;;;;;;7.15;3.80;;;15.50;99.90;;;18.00;61.35;97659.38;5083626;28;20334;-60
2022/09/11 02:24:15;;;;;;;5.75;3.83;;;15.50;99.90;;;18.04;61.31;97666.00;5050814;28;20054;-60
2022/09/11 02:27:09;;;;;;;4.65;3.53;;;15.50;99.90;;;17.65;62.81;97661.41;5068708;28;20063;-59
2022/09/11 02:29:38;;;;;;;5.75;3.63;;;15.40;99.90;;;17.74;62.85;97664.72;5051401;28;20052;-59
2022/09/11 02:32:06;;;;;;;9.40;4.05;;;15.30;99.90;;;17.67;63.04;97668.25;5066720;28;20040;-60
2022/09/11 02:34:38;;;;;;;4.88;3.90;;;15.30;99.90;;;17.75;62.72;97667.22;5068363;28;20044;-59
2022/09/11 02:37:21;;;;;;;6.40;3.65;;;15.40;99.90;;;17.69;63.18;97668.03;5051501;28;20057;-60
2022/09/11 02:40:25;;;;;;;5.80;3.22;;;15.40;99.90;;;17.50;63.79;97675.88;5066396;28;20373;-60
2022/09/11 02:43:21;;;;;;;5.90;3.70;;;15.40;99.90;;;17.77;62.96;97672.41;5053139;28;20060;-60
2022/09/11 02:46:01;;;;;;;;;;;15.40;99.90;;;17.85;62.83;97682.97;5081312;28;20064;-60
2022/09/11 02:48:51;;;;;;;7.15;3.55;;;15.50;99.90;;;17.85;62.66;97669.53;5067196;28;19924;-58
2022/09/11 02:51:45;;;;;;;5.28;4.00;;;15.40;99.90;;;17.46;64.16;97685.38;5066351;28;20239;-60
2022/09/11 02:54:52;;;;;;;10.05;5.57;;;15.40;99.90;;;17.47;64.46;97673.59;5065918;28;20054;-60
2022/09/11 02:57:59;;;;;;;5.05;3.72;;;15.40;99.90;;;17.84;63.08;97682.16;5048601;28;20362;-59
2022/09/11 03:00:28;;;;;;;6.28;4.18;;;15.50;99.90;;;17.82;62.88;97676.13;5067835;28;20064;-60
2022/09/11 03:02:57;;;;;;;5.35;3.63;;;15.50;99.90;;;17.92;62.73;97673.06;5066165;28;20059;-59
2022/09/11 03:05:27;;;;;;;5.72;4.03;;;15.50;99.90;;;17.63;63.74;97668.88;5066635;28;20048;-60
2022/09/11 03:07:56;;;;;;;6.13;4.32;;;15.40;99.90;;;17.77;63.26;97678.59;5066091;28;20060;-60
2022/09/11 03:10:26;;;;;;;5.40;4.65;;;15.50;99.90;;;17.75;63.30;97679.84;5084617;28;20045;-59
2022/09/11 03:12:54;;;;;;;7.20;4.28;;;15.40;99.90;;;17.54;64.23;97683.53;5049954;28;20062;-60
2022/09/11 03:15:22;;;;;;;8.80;4.18;;;15.40;99.90;;;17.52;64.13;97684.59;5066129;28;20051;-59
2022/09/11 03:17:51;;;;;;;6.03;4.15;;;15.30;99.90;;;17.58;63.87;97680.22;5067908;28;20062;-60
2022/09/11 03:20:20;;;;;;;6.93;4.22;;;15.30;99.90;;;17.73;63.62;97676.53;5083590;28;20055;-59
2022/09/11 03:22:48;;;;;;;5.85;4.30;;;15.40;99.90;;;17.93;62.97;97680.06;5066402;28;20049;-59
2022/09/11 03:25:16;;;;;;;6.88;4.60;;;15.50;99.90;;;17.74;63.41;97681.72;5082745;28;20526;-58
2022/09/11 03:27:44;;;;;;;7.65;4.35;;;15.50;99.90;;;17.94;63.04;97681.75;5068817;28;20368;-59
2022/09/11 03:30:13;;;;;;;7.13;4.10;;;15.50;99.90;;;17.89;63.07;97686.91;5082280;28;20064;-60
2022/09/11 03:32:41;;;;;;;6.13;4.53;;;15.50;99.90;;;17.73;63.50;97684.63;5066448;28;20047;-59
2022/09/11 03:35:12;;;;;;;6.30;4.70;;;15.40;99.90;;;17.84;63.25;97681.34;5066551;28;20049;-59
2022/09/11 03:37:40;;;;;;;5.03;4.15;;;15.40;99.90;;;17.67;63.95;97691.66;5050227;28;20373;-59
2022/09/11 03:40:08;;;;;;;6.65;5.05;;;15.40;99.90;;;17.77;63.72;97685.84;5065556;28;20224;-58
2022/09/11 03:42:36;;;;;;;6.85;4.63;;;15.40;99.90;;;17.58;64.43;97692.88;5081439;28;20062;-59
2022/09/11 03:45:04;;;;;;;6.03;4.40;;;15.40;99.90;;;17.55;64.18;97691.44;5066057;28;20050;-56
2022/09/11 03:47:32;;;;;;;5.53;4.20;;;15.40;99.90;;;17.74;63.81;97686.25;5065798;28;20266;-58
2022/09/11 03:50:00;;;;;;;5.68;4.68;;;15.40;99.90;;;17.63;63.98;97706.56;5065732;28;20044;-60
2022/09/11 03:52:29;;;;;;;6.80;4.82;;;15.40;99.90;;;17.75;63.54;97691.44;5067145;28;20049;-59
2022/09/11 03:54:57;;;;;;;5.90;4.63;;;15.50;99.90;;;17.68;63.90;97688.75;5049214;28;20066;-60
2022/09/11 03:57:25;;;;;;;7.43;5.18;;;15.40;99.90;;;17.63;63.76;97691.22;5067390;28;20263;-59
2022/09/11 03:59:55;;;;;;;6.00;4.70;;;15.50;99.90;;;17.28;65.23;97699.44;5065417;28;20056;-59
2022/09/11 04:02:23;;;;;;;6.30;4.38;;;15.30;99.90;;;17.42;64.84;97691.41;5065695;28;20053;-57
2022/09/11 04:04:53;;;;;;;5.90;5.30;;;15.40;99.90;;;17.33;65.14;97685.34;5064805;28;20052;-60
2022/09/11 04:07:21;;;;;;;6.63;4.97;;;15.30;99.90;;;17.49;64.69;97686.88;5050162;28;20061;-59
2022/09/11 04:09:49;;;;;;;9.68;5.72;;;15.30;99.90;;;17.38;64.79;97700.91;5028737;28;20282;-60
2022/09/11 04:12:18;;;;;;;7.68;5.40;;;15.30;99.90;;;17.59;64.16;97705.31;5047428;28;20065;-60
2022/09/11 04:14:49;;;;;;;6.72;4.80;;;15.30;99.90;;;17.82;63.55;97699.53;5043182;28;20085;-59
2022/09/11 04:17:17;;;;;;;6.80;5.05;;;15.40;99.90;;;17.86;63.11;97708.88;5045466;28;20056;-57
2022/09/11 04:19:45;;;;;;;9.13;5.03;;;15.40;99.90;;;17.80;63.42;97705.13;5044713;28;20063;-58
2022/09/11 04:22:13;;;;;;;7.30;5.28;;;15.40;99.90;;;17.83;63.21;97703.88;5060171;28;20216;-57
2022/09/11 04:24:41;;;;;;;5.18;4.57;;;15.40;99.90;;;17.93;63.11;97706.19;5043108;28;20063;-60
2022/09/11 04:27:09;;;;;;;7.95;5.00;;;15.30;99.90;;;17.74;63.64;97711.34;5027172;28;20073;-59
2022/09/11 04:29:36;;;;;;;7.10;5.35;;;15.30;99.90;;;17.97;62.72;97713.66;5044121;28;20378;-59
2022/09/11 04:32:07;;;;;;;6.47;5.40;;;15.40;99.90;;;17.71;63.87;97711.72;5060205;28;20059;-60
2022/09/11 04:34:36;;;;;;;6.93;5.75;;;15.30;99.90;;;17.79;63.46;97716.91;5027938;28;20060;-58
2022/09/11 04:37:05;;;;;;;6.65;5.50;;;15.30;99.90;;;17.75;63.66;97712.97;5045269;28;20063;-57
2022/09/11 04:39:34;;;;;;;8.65;5.57;;;15.30;99.90;;;17.90;63.12;97719.03;5060250;28;20255;-56
2022/09/11 04:42:03;;;;;;;9.02;5.45;;;15.30;99.90;;;17.82;63.59;97729.97;5042708;28;20068;-57
2022/09/11 04:44:32;;;;;;;6.00;5.38;;;15.30;99.90;;;17.71;63.82;97739.47;5027673;28;20049;-59
2022/09/11 04:47:00;;;;;;;8.52;5.63;;;15.30;99.90;;;17.74;63.87;97737.41;5045437;28;20055;-58
2022/09/11 04:49:28;;;;;;;7.13;5.45;;;15.30;99.90;;;17.51;64.52;97736.75;5043288;28;20059;-58
2022/09/11 04:52:01;;;;;;;8.43;5.55;;;15.30;99.90;;;17.71;63.84;97738.66;5028119;28;20071;-59
2022/09/11 04:54:29;;;;;;;7.25;5.25;;;15.30;99.90;;;17.84;63.75;97752.19;5027720;28;20056;-63
2022/09/11 04:56:57;;;;;;;6.53;5.60;;;15.30;99.90;;;17.85;63.82;97744.91;5044260;28;20055;-62
2022/09/11 04:59:25;;;;;;;7.18;5.57;;;15.40;99.90;;;17.93;63.20;97754.66;5060951;28;20274;-62
2022/09/11 05:02:05;;;;;;;6.28;5.40;;;15.40;99.90;;;17.90;63.55;97755.91;5029424;28;20131;-61
2022/09/11 05:04:37;;;;;;;6.15;5.55;;;15.40;99.90;;;18.08;62.67;97758.81;5047197;28;20051;-63
2022/09/11 05:07:05;;;;;;;7.35;5.30;;;15.40;99.90;;;17.89;63.72;97768.56;5032925;28;20056;-63
2022/09/11 05:09:34;;;;;;;8.25;6.28;;;15.40;99.90;;;18.10;62.80;97772.91;5048268;28;20045;-63
2022/09/11 05:12:04;;;;;;;7.75;5.43;;;15.50;99.90;;;18.13;62.34;97784.34;5057207;28;20391;-63
2022/09/11 05:14:34;;;;;;;6.18;5.45;;;15.50;99.90;;;17.92;63.34;97770.00;5066463;28;20063;-63
2022/09/11 05:17:03;;;;;;;6.35;5.60;;;15.50;99.90;;;17.98;63.22;97782.66;5051563;28;20070;-62
2022/09/11 05:19:35;;;;;;;6.10;5.50;;;15.40;99.90;;;17.77;63.60;97777.41;5067817;28;20060;-63
2022/09/11 05:22:03;;;;;;;13.18;6.75;;;15.30;99.90;;;17.56;64.69;97781.88;5051998;28;20054;-63
2022/09/11 05:24:32;;;;;;;8.77;5.95;;;15.30;99.90;;;17.87;63.57;97788.63;5067428;28;20350;-63
2022/09/11 05:28:04;;;;;;;7.05;6.30;;;15.30;99.90;;;17.85;63.58;97779.94;5105430;27;20359;-60
2022/09/11 05:30:32;;;;;;;12.40;6.05;;;15.40;99.90;;;17.71;64.22;97779.03;5065471;28;20062;-59
2022/09/11 05:33:00;;;;;;;8.77;6.28;;;15.40;99.90;;;17.88;63.38;97780.34;5084128;28;20337;-57
2022/09/11 05:35:28;;;;;;;8.23;6.35;;;15.40;99.90;;;17.91;63.64;97781.81;5048322;28;20056;-58
2022/09/11 05:38:00;;;;;;;9.38;6.95;;;15.40;99.90;;;17.95;63.47;97784.91;5081717;28;20063;-57
2022/09/11 05:40:28;;;;;;;8.57;7.57;;;15.40;99.90;;;17.90;63.70;97786.38;5081990;28;20067;-58
2022/09/11 05:42:57;;;;;;;10.52;6.43;;;15.40;99.90;;;17.97;63.37;97789.09;5065292;28;20062;-57
2022/09/11 05:45:25;;;;;;;7.53;5.47;;;15.40;99.90;;;18.06;63.12;97795.91;5080909;28;20052;-58
2022/09/11 05:47:53;;;;;;;8.70;6.47;;;15.50;99.90;;;17.95;63.60;97796.53;5064572;28;20048;-57
2022/09/11 05:50:24;;;;;;;10.57;7.00;;;15.40;99.90;;;18.15;62.85;97793.88;5083261;28;20236;-58
2022/09/11 05:52:52;;;;;;;9.88;7.15;;;15.50;99.90;;;18.19;62.76;97805.88;5079710;28;20048;-58
2022/09/11 05:55:20;;;;;;;8.35;6.68;;;15.50;99.90;;;18.15;62.74;97803.81;5082763;28;20220;-58
2022/09/11 05:57:52;;;;;;;8.88;6.65;;;15.50;99.90;;;18.28;62.29;97803.81;5065632;28;20262;-56
2022/09/11 06:00:20;;;;;;;12.25;7.00;;;15.60;99.90;;;18.19;62.76;97807.75;5080884;28;20078;-56
2022/09/11 06:02:57;;;;;;;9.55;6.60;;;15.50;99.90;;;18.31;62.37;97806.09;5065113;28;20052;-57
2022/09/11 06:05:29;;;;;;;7.15;6.45;;;15.50;99.90;;;18.03;63.21;97817.03;5064774;28;20064;-57
2022/09/11 06:08:00;;;;;;;7.57;6.68;;;15.50;99.90;;;18.21;62.65;97816.47;5048232;28;20051;-57
2022/09/11 06:10:28;;;;;;;9.48;6.80;;;15.50;99.90;;;18.21;62.77;97833.44;5081392;28;20627;-54
2022/09/11 06:12:56;;;;;;;10.98;6.55;;;15.50;99.90;;;18.32;62.45;97831.16;5064719;28;20342;-57
2022/09/11 06:15:24;;;;;;;10.02;8.25;;;15.60;99.90;;;18.35;62.45;97836.16;5047306;28;20605;-57
2022/09/11 06:18:16;;;;;;;8.20;7.05;;;15.60;99.90;;;18.09;63.15;97840.50;5063788;28;20063;-57
2022/09/11 06:20:58;;;;;;;11.15;6.28;;;15.60;99.90;;;18.19;63.07;97846.31;5064695;28;20056;-53
2022/09/11 06:23:28;;;;;;;7.82;6.28;;;15.60;99.90;;;18.25;62.95;97850.03;5064132;28;20269;-55
2022/09/11 06:26:08;;;;;;;7.80;6.38;;;15.60;99.90;;;18.04;63.48;97859.13;5064741;28;20056;-57
2022/09/11 06:28:40;;;;;;;12.10;7.57;;;15.60;99.90;;;17.98;63.79;97857.25;5080278;28;20056;-57
2022/09/11 06:31:17;;;;;;;10.40;6.40;;;15.50;99.90;;;18.21;63.09;97856.88;5063461;28;20384;-58
2022/09/11 06:33:47;;;;;;;7.95;7.15;;;15.60;99.90;;;18.20;63.21;97856.03;5064347;28;20048;-57
2022/09/11 06:36:26;;;;;;;11.10;6.43;;;15.60;99.90;;;18.35;62.66;97858.53;5080528;28;20059;-57
2022/09/11 06:38:57;;;;;;;7.22;5.90;;;15.70;99.90;;;18.36;62.86;97856.66;5056124;28;20058;-57
2022/09/11 06:41:27;;;;;;;6.93;6.05;;;15.70;99.90;;;18.36;62.80;97870.16;5069407;28;20057;-57
2022/09/11 06:44:04;;;;;;;8.85;6.72;;;15.70;99.90;;;18.30;62.88;97864.56;5052556;28;20059;-55
2022/09/11 06:46:31;;;;;;;9.27;6.40;;;15.70;99.90;;;18.34;62.83;97866.84;5066785;28;20238;-57
2022/09/11 06:49:01;;;;;;;7.80;6.63;;;15.70;99.90;;;18.32;62.83;97872.44;5049005;28;20068;-57
2022/09/11 06:51:29;;;;;;;9.73;6.40;;;15.70;99.90;;;18.41;62.58;97868.50;5067700;28;20044;-56
2022/09/11 06:54:01;;;;;;;11.82;6.93;;;15.80;99.90;;;18.40;62.87;97864.16;5051055;28;20063;-55
2022/09/11 06:56:32;;;;;;;9.23;6.78;;;15.80;99.90;;;18.53;62.22;97865.19;5051192;28;20055;-55
2022/09/11 06:59:01;;;;;;;10.15;6.60;;;15.80;99.90;;;18.36;62.94;97867.44;5050089;28;20393;-57
2022/09/11 07:01:30;;;;;;;10.23;6.60;;;15.80;99.90;;;18.34;62.89;97865.00;5065719;28;20366;-57
2022/09/11 07:04:02;;;;;;;7.30;6.38;;;15.80;99.90;;;18.39;62.90;97869.75;5048396;28;20051;-57
2022/09/11 07:06:33;;;;;;;8.32;7.38;;;15.80;99.90;;;18.48;62.59;97869.34;5033981;28;20054;-57
2022/09/11 07:09:03;;;;;;;15.55;7.22;;;15.90;99.90;;;18.41;62.90;97863.09;5034466;28;20355;-56
2022/09/11 07:11:43;;;;;;;8.25;6.03;;;15.90;99.90;;;18.24;63.50;97875.31;5034279;28;20048;-57
2022/09/11 07:14:11;;;;;;;11.20;8.30;;;15.80;99.90;;;18.41;63.25;97865.81;5049372;28;20058;-57
2022/09/11 07:16:42;;;;;;;8.35;6.55;;;15.90;99.90;;;18.67;62.51;97865.00;5049431;28;20057;-56
2022/09/11 07:19:12;;;;;;;8.13;6.28;;;16.00;99.90;;;18.59;62.82;97870.59;5049755;28;20370;-56
2022/09/11 07:21:40;;;;;;;7.63;6.53;;;16.00;99.90;;;18.69;62.50;97879.09;5066245;28;20044;-56
2022/09/11 07:24:08;;;;;;;9.57;5.70;;;16.10;99.90;;;18.44;63.22;97881.56;5051612;28;20457;-57
2022/09/11 07:26:40;;;;;;;8.88;6.90;;;16.00;99.90;;;18.59;62.70;97877.84;5049046;28;20056;-56
2022/09/11 07:29:13;;;;;;;8.57;6.65;;;16.00;99.90;;;18.40;63.25;97879.50;5050427;28;20048;-57
2022/09/11 07:31:43;;;;;;;9.45;6.68;;;16.00;99.90;;;18.51;63.02;97876.19;5034474;28;20262;-56
2022/09/11 07:34:11;;;;;;;9.55;7.15;;;16.10;99.90;;;18.54;62.90;97878.47;5068113;28;20063;-58
2022/09/11 07:36:40;;;;;;;9.23;6.57;;;16.10;99.90;;;18.78;62.32;97878.88;5051323;28;20059;-57
2022/09/11 07:39:10;;;;;;;7.93;6.93;;;16.20;99.90;;;18.79;62.27;97881.38;5049895;28;20056;-57
2022/09/11 07:41:48;;;;;;;8.75;7.13;;;16.20;99.90;;;19.05;61.59;97887.81;5048963;28;20064;-56
2022/09/11 07:44:22;;;;;;;7.53;6.68;;;16.40;99.90;;;19.10;61.60;97896.13;5034859;28;20056;-56
2022/09/11 07:46:50;;;;;;;7.13;6.35;;;16.50;99.90;;;19.19;61.14;97888.63;5034486;28;20505;-57
2022/09/11 07:49:19;;;;;;;9.32;7.07;;;16.50;99.90;;;19.25;60.99;97893.16;5064259;28;20056;-57
2022/09/11 07:51:47;;;;;;;7.95;6.55;;;16.60;99.90;;;19.20;61.24;97898.41;5048678;28;20052;-57
2022/09/11 07:54:21;;;;;;;6.60;5.90;;;16.60;99.90;;;19.08;61.49;97898.19;5066043;28;20059;-56
2022/09/11 07:56:49;;;;;;;9.88;7.20;;;16.60;99.90;;;18.95;61.61;97898.22;5050122;28;20063;-57
2022/09/11 07:59:17;;;;;;;9.23;6.57;;;16.60;99.90;;;19.20;60.95;97901.91;5031681;28;20056;-57
2022/09/11 08:01:52;;;;;;;7.47;6.28;;;16.60;99.90;;;19.25;60.76;97904.81;5031721;28;20122;-56
2022/09/11 08:04:20;;;;;;;7.47;6.35;;;16.60;99.90;;;19.32;60.41;97906.69;5068924;28;20052;-57
2022/09/11 08:06:48;;;;;;;9.25;7.13;;;16.70;99.90;;;19.29;60.34;97905.22;5068424;28;20358;-58
2022/09/11 08:09:21;;;;;;;10.55;7.43;;;16.60;99.90;;;19.10;60.71;97920.41;5048818;28;20054;-58
2022/09/11 08:11:57;;;;;;;8.45;6.72;;;16.50;99.90;;;19.10;60.69;97920.41;5049129;28;20066;-57
2022/09/11 08:14:49;;;;;;;10.07;7.30;;;16.50;99.90;;;19.20;60.65;97915.41;5065934;28;20048;-56
2022/09/11 08:17:20;;;;;;;8.25;6.45;;;16.50;99.90;;;19.11;61.11;97916.66;5048148;28;20556;-57
2022/09/11 08:19:48;;;;;;;9.35;6.63;;;16.60;99.90;;;19.22;61.04;97917.91;5048510;28;20262;-57
2022/09/11 08:22:16;;;;;;;10.77;7.15;;;16.70;99.90;;;19.36;60.86;97918.72;5048401;28;20246;-58
2022/09/11 08:24:47;;;;;;;10.70;6.82;;;16.80;99.90;;;19.44;60.41;97913.06;5048799;28;20066;-57
2022/09/11 08:27:18;;;;;;;9.82;6.85;;;16.90;99.90;;;19.67;59.96;97916.13;5048035;28;20064;-58
2022/09/11 08:29:47;;;;;;;9.18;7.05;;;17.10;99.90;;;19.86;59.82;97919.81;5064074;28;20388;-57
2022/09/11 08:32:16;;;;;;;9.60;7.47;;;17.30;99.90;;;19.57;59.66;97923.84;5047417;28;20053;-58
2022/09/11 08:34:44;;;;;;;8.05;7.03;;;17.30;99.90;;;19.71;59.14;97919.22;5066395;28;20253;-58
2022/09/11 08:37:12;;;;;;;9.02;6.63;;;17.20;99.90;;;19.67;59.21;97923.41;5066149;28;20068;-57
2022/09/11 08:39:39;;;;;;;9.05;7.28;;;17.30;99.90;;;19.73;58.92;97921.75;5064389;28;20049;-58
2022/09/11 08:42:14;;;;;;;7.95;6.60;;;17.20;99.90;;;19.79;58.93;97921.75;5047548;28;20057;-58
2022/09/11 08:44:51;;;;;;;8.43;6.35;;;17.30;99.90;;;20.14;58.28;97925.94;5032641;28;20064;-58
2022/09/11 08:47:34;;;;;;;7.57;6.57;;;17.50;99.90;;;20.42;57.77;97934.50;5045324;28;20048;-58
2022/09/11 08:50:08;;;;;;;7.47;6.53;;;17.80;99.90;;;20.49;56.86;97922.81;5048365;28;20056;-58
2022/09/11 08:52:36;;;;;;;;;;;18.00;99.90;;;20.33;56.50;97932.28;5050264;28;20111;-57
2022/09/11 08:55:13;;;;;;;10.27;7.18;;;18.00;99.90;;;20.37;56.84;97933.50;5048294;28;19963;-58
2022/09/11 08:58:01;;;;;;;7.35;6.03;;;17.80;99.90;;;20.23;56.30;97938.16;5047691;28;20060;-58
2022/09/11 09:00:57;;;;;;;8.25;6.13;;;17.70;99.90;;;20.26;56.55;97938.56;5049874;28;20063;-58
2022/09/11 09:04:05;;;;;;;7.85;6.60;;;17.70;99.90;;;19.87;57.08;97942.25;5046165;28;20262;-58
2022/09/11 09:06:56;;;;;;;10.52;7.13;;;17.40;99.90;;;19.74;57.55;97935.06;5047123;28;20059;-58
2022/09/11 09:09:49;;;;;;;10.10;7.35;;;17.20;99.90;;;19.97;57.16;97942.66;5031737;28;20059;-57
2022/09/11 09:12:24;;;;;;;10.65;8.07;;;17.20;99.90;;;20.17;56.64;97941.72;5034066;28;20126;-57
2022/09/11 09:15:19;;;;;;;8.57;7.72;;;17.40;99.90;;;20.42;56.74;97939.09;5047587;28;20066;-56
2022/09/11 09:17:48;;;;;;;;;;;17.60;99.90;;;20.55;56.22;97947.13;5033218;28;20056;-58
2022/09/11 09:20:21;;;;;;;8.70;6.93;;;17.80;99.90;;;20.25;55.69;97945.00;5066326;28;19931;-58
2022/09/11 09:22:55;;;;;;;6.55;5.72;;;17.80;99.90;;;20.59;56.08;97937.56;5031724;28;20250;-58
2022/09/11 09:25:27;;;;;;;9.77;7.18;;;18.00;99.90;;;20.76;55.40;97943.28;5049253;28;20041;-58
2022/09/11 09:28:12;;;;;;;7.70;6.00;;;18.10;99.90;;;20.63;54.36;97938.78;5031847;28;20044;-58
2022/09/11 09:30:59;;;;;;;6.78;6.07;;;18.30;99.90;;;20.81;53.40;97948.84;5032814;28;20239;-58
2022/09/11 09:33:42;;;;;;;7.78;5.57;;;18.40;99.90;;;20.78;53.00;97943.91;5064010;28;20247;-58
2022/09/11 09:36:23;;;;;;;7.40;5.53;;;18.30;99.90;;;20.62;53.79;97945.22;5049454;28;20066;-59
2022/09/11 09:38:52;;;;;;;8.65;6.45;;;18.20;99.90;;;20.68;53.63;97942.72;5050517;28;20060;-57
2022/09/11 09:41:26;;;;;;;16.63;6.60;;;18.10;99.90;;;20.72;53.73;97941.22;5064705;28;20070;-59
2022/09/11 09:44:33;;;;;;;9.05;6.13;;;18.10;99.90;;;20.70;53.87;97948.72;5048722;28;20056;-59
2022/09/11 09:47:00;;;;;;;7.43;6.47;;;18.10;99.90;;;20.58;54.49;97941.28;5061867;28;20060;-58
2022/09/11 09:49:35;;;;;;;8.38;7.35;;;18.00;99.90;;;20.82;54.29;97944.25;5066389;28;20049;-56
2022/09/11 09:52:23;;;;;;;9.15;6.85;;;18.10;99.90;;;20.60;54.29;97933.81;5048873;28;20048;-58
2022/09/11 09:55:05;;;;;;;7.35;6.40;;;18.00;99.90;;;20.36;54.55;97946.19;5065662;28;20048;-59
2022/09/11 09:57:36;;;;;;;8.07;6.68;;;17.80;99.90;;;20.57;54.46;97945.03;5048931;28;20044;-58
2022/09/11 10:00:08;;;;;;;10.13;7.13;;;17.80;99.90;;;20.69;53.90;97950.63;5049611;28;20052;-58
2022/09/11 10:02:47;;;;;;;10.52;6.97;;;18.00;99.90;;;20.94;53.58;97942.50;5068291;28;20048;-58
2022/09/11 10:05:25;;;;;;;8.05;6.30;;;18.30;99.90;;;21.16;53.29;97951.06;5048547;28;20044;-58
2022/09/11 10:07:59;;;;;;;8.32;7.25;;;18.50;99.90;;;21.22;53.18;97933.94;5065618;28;20064;-58
2022/09/11 10:10:39;;;;;;;7.07;5.93;;;18.60;99.90;;;21.41;52.21;97933.97;5048605;28;20047;-59
2022/09/11 10:13:19;;;;;;;9.43;6.38;;;18.80;99.80;;;21.48;52.19;97942.03;5049820;28;20041;-58
2022/09/11 10:15:52;;;;;;;6.05;5.43;;;18.80;99.90;;;21.50;51.98;97937.22;5051534;28;20271;-59
2022/09/11 10:18:36;;;;;;;7.20;6.50;;;18.80;99.90;;;;;;5069099;28;20066;-59
2022/09/11 10:21:36;;;;;;;14.88;7.55;;;18.70;99.90;;;21.41;52.15;97936.69;5051895;28;20063;-59
2022/09/11 10:24:22;;;;;;;13.73;8.65;;;18.70;99.90;;;21.03;54.82;97940.34;5050935;28;20353;-54
2022/09/11 10:26:53;;;;;;;10.32;8.95;;;18.50;99.90;;;20.67;55.25;97943.78;5069518;28;20351;-55
2022/09/11 10:29:28;;;;;;;9.43;8.05;;;18.10;99.90;;;20.65;55.28;97941.28;5050474;28;20060;-57
2022/09/11 10:32:02;;;;;;;9.85;8.20;;;17.90;99.90;;;20.75;55.14;97943.50;5050589;28;20075;-58
2022/09/11 10:34:37;;;;;;;10.27;9.18;;;17.90;99.90;;;20.88;55.27;97932.56;5052528;28;20040;-55
2022/09/11 10:37:12;;;;;;;10.52;8.93;;;18.10;99.90;;;20.78;56.29;97940.34;5053383;28;20075;-58
2022/09/11 10:39:45;;;;;;;9.27;7.95;;;18.10;99.90;;;20.90;55.77;97929.63;5051610;28;20057;-58
2022/09/11 10:42:24;;;;;;;9.25;8.00;;;18.20;99.90;;;21.02;55.38;97925.19;5052425;28;20066;-58
2022/09/11 10:44:56;;;;;;;10.52;7.63;;;18.20;99.90;;;21.04;54.26;97931.19;5068664;28;20063;-57
2022/09/11 10:47:29;;;;;;;10.07;7.85;;;18.40;99.90;;;21.07;54.86;97933.44;5052946;28;20090;-58
2022/09/11 10:50:25;;;;;;;9.80;7.47;;;18.40;99.90;;;21.25;54.79;97921.84;5050687;28;20075;-58
2022/09/11 10:53:11;;;;;;;9.52;7.10;;;18.60;99.90;;;21.49;53.68;97920.16;5052306;28;20052;-58